SBUG/URG METAR and TAF weather

Enter ICAO airport designator
Station Type Date Time Source
SBUG METAR 2019/05/25 09:00 UTC NOAA

SBUG 250900Z 09004KT CAVOK 09/08 Q1017


Station Type Date Time Source
SBUG Decoded METAR 2019/05/25 09:00 UTC NOAA

Uruguaiana Aeroporto , Brazil (SBUG) 29-47S 057-02W 74M
May 25, 2019 - 05:00 AM EDT / 2019.05.25 0900 UTC
Wind: from the E (090 degrees) at 5 MPH (4 KT):0
Visibility: greater than 7 mile(s):0
Temperature: 48 F (9 C)
Dew Point: 46 F (8 C)
Relative Humidity: 93%
Pressure (altimeter): 30.03 in. Hg (1017 hPa)
ob: SBUG 250900Z 09004KT CAVOK 09/08 Q1017
cycle: 9

Station Type Date Time Source
SBUG TAF 2019/05/25 06:57 UTC NOAA

TAF SBUG 250130Z 2506/2518 19006KT CAVOK TN10/2508Z TX20/2517Z
RMK PE B

Example: see airport list